Time;durP1;ratioP1;P1;durP2;ratioP2;P2;SDS_P1;SDS_P2;PMS_P1;PMS_P2;Temp;Humidity;BMP_temperature;BMP_pressure;BME280_temperature;BME280_humidity;BME280_pressure;Samples;Min_cycle;Max_cycle;Signal;HPM_P1;HPM_P2
2022/12/14 00:00:32;;;;;;;44.53;23.73;;;;;;;;;;4992897;28;20026;-69
2022/12/14 00:02:58;;;;;;;43.90;23.00;;;;;;;;;;5003680;28;20058;-69
2022/12/14 00:05:24;;;;;;;42.00;22.52;;;;;;;;;;5004764;28;20491;-69
2022/12/14 00:07:50;;;;;;;40.03;22.42;;;;;;;;;;4988486;28;20438;-71
2022/12/14 00:10:16;;;;;;;42.03;22.75;;;;;;;;;;4999615;28;20062;-69
2022/12/14 00:12:42;;;;;;;40.33;21.98;;;;;;;;;;4999834;28;20475;-70
2022/12/14 00:15:09;;;;;;;37.22;21.80;;;;;;;;;;5009292;28;20022;-72
2022/12/14 00:17:35;;;;;;;37.40;21.48;;;;;;;;;;5007341;28;20083;-69
2022/12/14 00:20:01;;;;;;;38.33;20.77;;;;;;;;;;5006569;28;20092;-68
2022/12/14 00:22:27;;;;;;;35.08;19.50;;;;;;;;;;5003010;28;20446;-70
2022/12/14 00:24:53;;;;;;;38.55;20.88;;;;;;;;;;5003498;28;20068;-71
2022/12/14 00:27:19;;;;;;;35.08;20.90;;;;;;;;;;4995112;28;20034;-69
2022/12/14 00:29:45;;;;;;;36.25;20.95;;;;;;;;;;4999186;28;20312;-69
2022/12/14 00:32:11;;;;;;;37.60;20.98;;;;;;;;;;5001287;28;20034;-71
2022/12/14 00:34:37;;;;;;;37.22;21.33;;;;;;;;;;4994169;28;20054;-68
2022/12/14 00:37:03;;;;;;;41.42;20.70;;;;;;;;;;4999944;28;20065;-68
2022/12/14 00:39:30;;;;;;;38.72;20.90;;;;;;;;;;4990204;28;20034;-69
2022/12/14 00:41:56;;;;;;;37.85;20.55;;;;;;;;;;4998145;28;20478;-69
2022/12/14 00:44:22;;;;;;;33.75;19.63;;;;;;;;;;5006921;28;20375;-69
2022/12/14 00:46:48;;;;;;;36.60;20.67;;;;;;;;;;5007964;28;20034;-71
2022/12/14 00:49:14;;;;;;;36.38;21.30;;;;;;;;;;5007685;28;20030;-71
2022/12/14 00:51:40;;;;;;;41.92;21.38;;;;;;;;;;5009306;28;20034;-68
2022/12/14 00:54:06;;;;;;;44.00;20.15;;;;;;;;;;4988519;28;20108;-69
2022/12/14 00:56:32;;;;;;;43.17;21.23;;;;;;;;;;5006561;28;20356;-69
2022/12/14 00:58:58;;;;;;;40.20;20.92;;;;;;;;;;5006370;28;20030;-68
2022/12/14 01:01:24;;;;;;;37.60;21.58;;;;;;;;;;5002846;28;20033;-70
2022/12/14 01:04:15;;;;;;;40.95;21.65;;;;;;;;;;4986319;28;20077;-68
2022/12/14 01:06:36;;;;;;;37.42;19.92;;;;;;;;;;5005569;28;20062;-68
2022/12/14 01:09:02;;;;;;;41.08;21.42;;;;;;;;;;5004452;28;20030;-68
2022/12/14 01:11:28;;;;;;;40.72;20.67;;;;;;;;;;4986424;28;20091;-68
2022/12/14 01:13:55;;;;;;;37.45;21.90;;;;;;;;;;5007404;28;20053;-68
2022/12/14 01:16:21;;;;;;;40.92;21.08;;;;;;;;;;5004339;28;20347;-68
2022/12/14 01:18:47;;;;;;;38.55;20.15;;;;;;;;;;5003786;28;20073;-70
2022/12/14 01:21:15;;;;;;;38.92;20.13;;;;;;;;;;5004269;28;20030;-68
2022/12/14 01:23:42;;;;;;;41.08;20.55;;;;;;;;;;5005967;28;20026;-68
2022/12/14 01:26:08;;;;;;;38.13;20.60;;;;;;;;;;5006159;28;20030;-67
2022/12/14 01:28:35;;;;;;;39.30;20.67;;;;;;;;;;5007332;28;20040;-68
2022/12/14 01:31:22;;;;;;;41.20;21.58;;;;;;;;;;5006485;28;20037;-68
2022/12/14 01:33:48;;;;;;;45.88;22.95;;;;;;;;;;5004977;28;20041;-69
2022/12/14 01:36:25;;;;;;;39.65;20.77;;;;;;;;;;5006581;28;20756;-67
2022/12/14 01:38:55;;;;;;;40.75;20.35;;;;;;;;;;5004744;28;20105;-68
2022/12/14 01:41:24;;;;;;;39.78;22.30;;;;;;;;;;5005682;28;20026;-68
2022/12/14 01:43:55;;;;;;;40.78;20.63;;;;;;;;;;5007414;28;22175;-68
2022/12/14 01:46:25;;;;;;;43.15;21.17;;;;;;;;;;5003413;28;20104;-67
2022/12/14 01:48:52;;;;;;;33.40;18.88;;;;;;;;;;4986686;28;20119;-68
2022/12/14 01:51:18;;;;;;;37.78;20.35;;;;;;;;;;5008548;28;20708;-68
2022/12/14 01:53:45;;;;;;;40.63;20.70;;;;;;;;;;5003830;28;20471;-68
2022/12/14 01:56:12;;;;;;;39.65;22.77;;;;;;;;;;5004273;28;20083;-71
2022/12/14 01:58:39;;;;;;;39.35;22.05;;;;;;;;;;5002601;28;20374;-68
2022/12/14 02:01:05;;;;;;;41.80;20.88;;;;;;;;;;5002401;28;20034;-67
2022/12/14 02:03:36;;;;;;;43.97;21.52;;;;;;;;;;4987583;28;20074;-70
2022/12/14 02:06:07;;;;;;;40.83;20.95;;;;;;;;;;5003511;28;20089;-68
2022/12/14 02:08:33;;;;;;;36.15;20.52;;;;;;;;;;5005851;28;20037;-68
2022/12/14 02:10:59;;;;;;;37.50;19.42;;;;;;;;;;5005805;28;20030;-68
2022/12/14 02:13:32;;;;;;;38.78;19.95;;;;;;;;;;5004350;28;20034;-67
2022/12/14 02:15:58;;;;;;;41.67;21.73;;;;;;;;;;4991033;28;20049;-69
2022/12/14 02:18:26;;;;;;;40.95;19.90;;;;;;;;;;5004190;28;21804;-71
2022/12/14 02:21:11;;;;;;;38.58;20.80;;;;;;;;;;5005331;28;20042;-68
2022/12/14 02:23:49;;;;;;;38.78;20.55;;;;;;;;;;5001172;28;20107;-68
2022/12/14 02:26:24;;;;;;;36.90;20.10;;;;;;;;;;5003531;28;20075;-68
2022/12/14 02:29:09;;;;;;;39.88;21.08;;;;;;;;;;5002278;28;20037;-69
2022/12/14 02:31:41;;;;;;;37.80;19.67;;;;;;;;;;5005251;28;20073;-69
2022/12/14 02:34:19;;;;;;;43.10;20.38;;;;;;;;;;5004420;28;20385;-67
2022/12/14 02:37:02;;;;;;;38.40;21.00;;;;;;;;;;4988610;28;20042;-68
2022/12/14 02:39:35;;;;;;;41.58;22.10;;;;;;;;;;5005869;28;20076;-69
2022/12/14 02:42:10;;;;;;;43.22;21.60;;;;;;;;;;5013724;28;20109;-71
2022/12/14 02:44:42;;;;;;;36.85;19.95;;;;;;;;;;5008165;28;20080;-68
2022/12/14 02:47:27;;;;;;;41.00;22.05;;;;;;;;;;5008727;28;20053;-68
2022/12/14 02:49:53;;;;;;;49.20;22.20;;;;;;;;;;5008324;28;20044;-71
2022/12/14 02:52:19;;;;;;;41.28;21.67;;;;;;;;;;5010494;28;20041;-69
2022/12/14 02:55:03;;;;;;;40.28;20.80;;;;;;;;;;5007230;28;20022;-69
2022/12/14 02:57:37;;;;;;;39.35;19.85;;;;;;;;;;5007320;28;20034;-68
2022/12/14 03:00:05;;;;;;;43.55;21.17;;;;;;;;;;5007758;28;20048;-69
2022/12/14 03:02:33;;;;;;;37.53;20.15;;;;;;;;;;5009289;28;20083;-68
2022/12/14 03:05:01;;;;;;;38.28;19.75;;;;;;;;;;5006000;28;20088;-68
2022/12/14 03:07:33;;;;;;;39.38;20.27;;;;;;;;;;5011656;28;20029;-67
2022/12/14 03:10:11;;;;;;;41.30;21.10;;;;;;;;;;5005731;28;20022;-69
2022/12/14 03:12:39;;;;;;;42.70;20.88;;;;;;;;;;5006450;28;20505;-68
2022/12/14 03:15:06;;;;;;;40.53;21.13;;;;;;;;;;5009536;28;20057;-68
2022/12/14 03:17:33;;;;;;;34.72;19.42;;;;;;;;;;4988641;28;20459;-67
2022/12/14 03:20:06;;;;;;;44.80;20.05;;;;;;;;;;4991985;28;20580;-68
2022/12/14 03:22:39;;;;;;;42.65;20.35;;;;;;;;;;5009890;28;20030;-68
2022/12/14 03:25:09;;;;;;;34.95;19.20;;;;;;;;;;5007688;28;20039;-68
2022/12/14 03:27:37;;;;;;;36.65;18.52;;;;;;;;;;5004934;28;20034;-67
2022/12/14 03:30:06;;;;;;;39.20;19.30;;;;;;;;;;5005283;28;20054;-71
2022/12/14 03:32:33;;;;;;;39.42;18.85;;;;;;;;;;5005152;28;20140;-68
2022/12/14 03:35:18;;;;;;;38.42;20.27;;;;;;;;;;4990060;28;20108;-67
2022/12/14 03:37:50;;;;;;;37.05;18.98;;;;;;;;;;5007284;28;20103;-67
2022/12/14 03:40:16;;;;;;;;;;;;;;;;;;5005945;28;20371;-67
2022/12/14 03:43:01;;;;;;;39.40;18.90;;;;;;;;;;5006630;28;19948;-68
2022/12/14 03:45:48;;;;;;;40.75;20.05;;;;;;;;;;5005120;28;20088;-70
2022/12/14 03:48:23;;;;;;;37.28;18.88;;;;;;;;;;5002200;28;20073;-67
2022/12/14 03:50:52;;;;;;;38.65;20.13;;;;;;;;;;5007439;28;20030;-68
2022/12/14 03:53:22;;;;;;;39.28;21.17;;;;;;;;;;5005114;28;20141;-68
2022/12/14 03:56:01;;;;;;;36.65;19.85;;;;;;;;;;5005499;28;20038;-67
2022/12/14 03:58:30;;;;;;;38.47;20.17;;;;;;;;;;5007953;28;20054;-67
2022/12/14 04:00:59;;;;;;;39.95;19.95;;;;;;;;;;5006416;28;20045;-69
2022/12/14 04:03:48;;;;;;;38.08;20.23;;;;;;;;;;5006633;28;20025;-68
2022/12/14 04:06:23;;;;;;;39.03;19.65;;;;;;;;;;4999854;28;20033;-68
2022/12/14 04:08:49;;;;;;;33.80;18.58;;;;;;;;;;5006213;28;20590;-67
2022/12/14 04:19:52;;;;;;;34.80;18.55;;;;;;;;;;5003368;28;20046;-73
2022/12/14 04:22:21;;;;;;;40.38;20.92;;;;;;;;;;5006691;28;20111;-68
2022/12/14 04:27:57;;;;;;;38.08;18.88;;;;;;;;;;5008221;28;20131;-67
2022/12/14 04:30:23;;;;;;;34.20;18.65;;;;;;;;;;5003320;28;22412;-72
2022/12/14 04:32:52;;;;;;;36.25;19.33;;;;;;;;;;5004686;28;20066;-68
2022/12/14 04:35:18;;;;;;;34.55;18.17;;;;;;;;;;5007435;28;20050;-68
2022/12/14 04:37:46;;;;;;;34.83;19.13;;;;;;;;;;5008354;28;20022;-68
2022/12/14 04:40:16;;;;;;;37.22;19.27;;;;;;;;;;5007137;28;20128;-70
2022/12/14 04:42:49;;;;;;;39.10;19.73;;;;;;;;;;5005629;28;20033;-67
2022/12/14 04:45:22;;;;;;;36.65;17.85;;;;;;;;;;5006015;28;20067;-68
2022/12/14 04:48:08;;;;;;;40.13;20.02;;;;;;;;;;5003632;28;20068;-67
2022/12/14 04:50:37;;;;;;;40.78;20.45;;;;;;;;;;4992690;28;20426;-68
2022/12/14 04:53:07;;;;;;;43.65;19.63;;;;;;;;;;4989519;28;20751;-69
2022/12/14 04:55:41;;;;;;;42.20;20.02;;;;;;;;;;5003180;28;20026;-67
2022/12/14 04:58:07;;;;;;;38.72;20.05;;;;;;;;;;5003947;28;21054;-71
2022/12/14 05:00:34;;;;;;;37.00;18.67;;;;;;;;;;5007113;28;20061;-67
2022/12/14 05:03:00;;;;;;;36.55;18.48;;;;;;;;;;5004978;28;20029;-67
2022/12/14 05:05:26;;;;;;;38.20;18.60;;;;;;;;;;5006482;28;20038;-67
2022/12/14 05:07:59;;;;;;;34.28;18.17;;;;;;;;;;5003552;28;20167;-67
2022/12/14 05:10:48;;;;;;;33.63;17.92;;;;;;;;;;4999792;28;20061;-68
2022/12/14 05:13:18;;;;;;;34.97;17.95;;;;;;;;;;4999233;28;20026;-69
2022/12/14 05:15:47;;;;;;;35.42;17.05;;;;;;;;;;4996503;28;20022;-69
2022/12/14 05:18:13;;;;;;;32.47;18.40;;;;;;;;;;5004968;28;20552;-68
2022/12/14 05:20:39;;;;;;;40.42;19.92;;;;;;;;;;4988080;28;20042;-68
2022/12/14 05:23:05;;;;;;;36.85;18.35;;;;;;;;;;4988500;28;20354;-67
2022/12/14 05:25:31;;;;;;;33.38;18.73;;;;;;;;;;4998759;28;20453;-71
2022/12/14 05:27:57;;;;;;;34.88;18.10;;;;;;;;;;4995161;28;20503;-70
2022/12/14 05:30:23;;;;;;;40.67;19.58;;;;;;;;;;4986732;28;20030;-70
2022/12/14 05:32:50;;;;;;;36.95;18.60;;;;;;;;;;5003796;28;20030;-72
2022/12/14 05:35:16;;;;;;;77.90;35.00;;;;;;;;;;5008466;28;20079;-68
2022/12/14 05:37:42;;;;;;;72.53;32.05;;;;;;;;;;5004800;28;20501;-67
2022/12/14 05:40:08;;;;;;;34.95;17.45;;;;;;;;;;5008449;28;20415;-68
2022/12/14 05:42:34;;;;;;;39.03;18.25;;;;;;;;;;5017289;28;20480;-68
2022/12/14 05:45:00;;;;;;;35.03;18.25;;;;;;;;;;5011179;28;20038;-67
2022/12/14 05:47:27;;;;;;;36.97;18.48;;;;;;;;;;5014526;28;22837;-72
2022/12/14 05:49:53;;;;;;;35.42;18.40;;;;;;;;;;5004989;28;20041;-67
2022/12/14 05:52:19;;;;;;;33.10;17.80;;;;;;;;;;4996667;28;20026;-70
2022/12/14 05:54:45;;;;;;;39.00;19.50;;;;;;;;;;5005823;28;20042;-66
2022/12/14 05:57:11;;;;;;;34.35;18.05;;;;;;;;;;5026690;28;20099;-66
2022/12/14 05:59:38;;;;;;;39.03;19.92;;;;;;;;;;5007214;28;20049;-67
2022/12/14 06:02:04;;;;;;;32.03;16.40;;;;;;;;;;4995267;28;20125;-66
2022/12/14 06:04:30;;;;;;;31.17;17.25;;;;;;;;;;5024658;28;20025;-67
2022/12/14 06:06:56;;;;;;;36.60;17.85;;;;;;;;;;5021254;28;20430;-67
2022/12/14 06:09:22;;;;;;;37.35;18.67;;;;;;;;;;4996504;28;20034;-67
2022/12/14 06:11:49;;;;;;;40.53;19.77;;;;;;;;;;4989909;28;20033;-68
2022/12/14 06:14:15;;;;;;;40.28;19.58;;;;;;;;;;4988730;28;20056;-69
2022/12/14 06:16:42;;;;;;;41.92;18.40;;;;;;;;;;5000074;28;20034;-66
2022/12/14 06:19:09;;;;;;;34.35;17.20;;;;;;;;;;4999040;28;20069;-67
2022/12/14 06:21:36;;;;;;;41.00;19.48;;;;;;;;;;5002076;28;20038;-66
2022/12/14 06:24:03;;;;;;;62.50;28.38;;;;;;;;;;4998435;28;21328;-69
2022/12/14 06:26:29;;;;;;;50.80;23.00;;;;;;;;;;4995935;28;20348;-68
2022/12/14 06:28:56;;;;;;;50.55;23.30;;;;;;;;;;4979779;28;20133;-67
2022/12/14 06:31:26;;;;;;;51.72;24.15;;;;;;;;;;4991014;28;20035;-66
2022/12/14 06:33:53;;;;;;;47.97;20.38;;;;;;;;;;4994718;28;20045;-67
2022/12/14 06:36:23;;;;;;;39.00;18.35;;;;;;;;;;4994187;28;20077;-67
2022/12/14 06:38:53;;;;;;;47.95;22.60;;;;;;;;;;4996282;28;20404;-65
2022/12/14 06:41:19;;;;;;;71.82;28.55;;;;;;;;;;4986314;28;20137;-67
2022/12/14 06:43:45;;;;;;;80.88;31.25;;;;;;;;;;4995235;28;20139;-67
2022/12/14 06:46:13;;;;;;;109.30;28.92;;;;;;;;;;4996926;28;20022;-66
2022/12/14 06:48:39;;;;;;;52.95;24.05;;;;;;;;;;5000954;28;20044;-67
2022/12/14 06:51:06;;;;;;;89.38;35.17;;;;;;;;;;4998946;28;21483;-66
2022/12/14 06:53:32;;;;;;;87.78;32.15;;;;;;;;;;4998070;28;20026;-67
2022/12/14 06:56:06;;;;;;;58.58;25.38;;;;;;;;;;4991533;28;20034;-69
2022/12/14 06:58:32;;;;;;;50.08;21.65;;;;;;;;;;4976942;28;20038;-66
2022/12/14 07:01:01;;;;;;;47.88;22.08;;;;;;;;;;4998001;28;20084;-66
2022/12/14 07:03:27;;;;;;;42.20;19.77;;;;;;;;;;4997089;28;20037;-67
2022/12/14 07:05:59;;;;;;;36.13;18.45;;;;;;;;;;4993402;28;20041;-66
2022/12/14 07:08:25;;;;;;;;;;;;;;;;;;4993149;28;20085;-67
2022/12/14 07:10:52;;;;;;;36.80;18.38;;;;;;;;;;4999791;28;19949;-69
2022/12/14 07:13:18;;;;;;;55.92;22.65;;;;;;;;;;4999381;28;20033;-67
2022/12/14 07:15:44;;;;;;;93.75;32.22;;;;;;;;;;4992675;28;20038;-71
2022/12/14 07:18:11;;;;;;;75.25;26.88;;;;;;;;;;4998596;28;20018;-68
2022/12/14 07:20:37;;;;;;;61.38;26.58;;;;;;;;;;4994534;28;20034;-67
2022/12/14 07:23:03;;;;;;;54.17;23.13;;;;;;;;;;4987895;28;20057;-72
2022/12/14 07:25:29;;;;;;;70.55;26.58;;;;;;;;;;4997779;28;20668;-67
2022/12/14 07:27:55;;;;;;;44.20;21.73;;;;;;;;;;4990402;28;20398;-67
2022/12/14 07:30:21;;;;;;;43.42;19.63;;;;;;;;;;4982238;28;20498;-67
2022/12/14 07:32:47;;;;;;;40.40;19.45;;;;;;;;;;5005693;28;20052;-68
2022/12/14 07:35:13;;;;;;;42.22;20.27;;;;;;;;;;4995760;28;20177;-67
2022/12/14 07:37:39;;;;;;;37.17;18.80;;;;;;;;;;4992641;28;20061;-67
2022/12/14 07:40:06;;;;;;;45.20;20.77;;;;;;;;;;4992433;28;20049;-68
2022/12/14 07:42:32;;;;;;;42.33;20.17;;;;;;;;;;5002036;28;20413;-67
2022/12/14 07:44:59;;;;;;;37.42;19.70;;;;;;;;;;4995451;28;20057;-69
2022/12/14 07:47:28;;;;;;;41.92;20.33;;;;;;;;;;4992517;28;20035;-67
2022/12/14 07:49:54;;;;;;;35.88;17.92;;;;;;;;;;4998997;28;20042;-67
2022/12/14 07:52:20;;;;;;;45.70;21.08;;;;;;;;;;4996447;28;20031;-67
2022/12/14 07:54:47;;;;;;;48.90;24.17;;;;;;;;;;5001228;28;20096;-67
2022/12/14 07:57:13;;;;;;;53.47;26.35;;;;;;;;;;4999837;28;20282;-68
2022/12/14 07:59:40;;;;;;;57.50;27.73;;;;;;;;;;4998150;28;20133;-68
2022/12/14 08:02:06;;;;;;;51.72;24.15;;;;;;;;;;4992947;28;20437;-68
2022/12/14 08:04:33;;;;;;;46.30;23.75;;;;;;;;;;4997053;28;20125;-67
2022/12/14 08:06:59;;;;;;;47.30;25.65;;;;;;;;;;5002327;28;20030;-69
2022/12/14 08:09:26;;;;;;;157.07;75.32;;;;;;;;;;4995568;28;20392;-68
2022/12/14 08:11:52;;;;;;;67.75;32.35;;;;;;;;;;4990463;28;20062;-69
2022/12/14 08:14:18;;;;;;;90.28;41.00;;;;;;;;;;5007965;28;20038;-67
2022/12/14 08:16:45;;;;;;;71.43;33.97;;;;;;;;;;5013621;28;20480;-68
2022/12/14 08:19:11;;;;;;;80.55;34.30;;;;;;;;;;5010373;28;20082;-69
2022/12/14 08:21:37;;;;;;;117.10;48.17;;;;;;;;;;5000264;28;20441;-67
2022/12/14 08:24:04;;;;;;;124.28;49.38;;;;;;;;;;4992762;28;20122;-67
2022/12/14 08:26:30;;;;;;;115.32;47.20;;;;;;;;;;5000634;28;20034;-68
2022/12/14 08:28:56;;;;;;;127.90;50.33;;;;;;;;;;4975598;28;21425;-70
2022/12/14 08:31:23;;;;;;;110.72;42.58;;;;;;;;;;4992179;28;20049;-68
2022/12/14 08:33:52;;;;;;;80.80;33.92;;;;;;;;;;4995608;28;20382;-68
2022/12/14 08:36:23;;;;;;;73.50;32.92;;;;;;;;;;4998436;28;20041;-67
2022/12/14 08:38:56;;;;;;;72.43;31.88;;;;;;;;;;4994956;28;20037;-69
2022/12/14 08:41:22;;;;;;;71.22;34.70;;;;;;;;;;4994829;28;20038;-68
2022/12/14 08:43:50;;;;;;;82.80;39.38;;;;;;;;;;4985915;28;22258;-69
2022/12/14 08:46:16;;;;;;;84.10;36.33;;;;;;;;;;4993719;28;20038;-68
2022/12/14 08:48:42;;;;;;;73.28;35.90;;;;;;;;;;5001610;28;20493;-68
2022/12/14 08:51:09;;;;;;;67.05;32.83;;;;;;;;;;5002039;28;20060;-68
2022/12/14 08:53:36;;;;;;;57.85;28.20;;;;;;;;;;4996342;28;20023;-68
2022/12/14 08:56:06;;;;;;;215.00;117.10;;;;;;;;;;4996188;28;20052;-68
2022/12/14 08:58:33;;;;;;;53.75;26.50;;;;;;;;;;4996551;28;20426;-68
2022/12/14 09:01:19;;;;;;;54.72;26.23;;;;;;;;;;4998651;28;20513;-69
2022/12/14 09:03:46;;;;;;;49.83;26.23;;;;;;;;;;4977848;28;20474;-70
2022/12/14 09:06:13;;;;;;;39.15;21.70;;;;;;;;;;4979157;28;20093;-68
2022/12/14 09:08:40;;;;;;;45.08;23.58;;;;;;;;;;4991257;28;20039;-68
2022/12/14 09:11:06;;;;;;;43.53;22.27;;;;;;;;;;4977546;28;20432;-69
2022/12/14 09:13:33;;;;;;;50.85;23.90;;;;;;;;;;4989687;28;20030;-68
2022/12/14 09:16:01;;;;;;;43.53;22.25;;;;;;;;;;4995399;28;20026;-68
2022/12/14 09:18:28;;;;;;;60.22;27.00;;;;;;;;;;4997019;28;20160;-68
2022/12/14 09:20:54;;;;;;;49.28;23.88;;;;;;;;;;4997445;28;20128;-68
2022/12/14 09:23:22;;;;;;;52.53;23.27;;;;;;;;;;4999734;28;20026;-68
2022/12/14 09:25:57;;;;;;;47.90;26.00;;;;;;;;;;4996663;28;20026;-68
2022/12/14 09:28:23;;;;;;;54.75;27.83;;;;;;;;;;4992866;28;20395;-69
2022/12/14 09:30:53;;;;;;;56.40;28.35;;;;;;;;;;4997314;28;20449;-69
2022/12/14 09:33:19;;;;;;;47.65;23.63;;;;;;;;;;4978974;28;20057;-69
2022/12/14 09:35:45;;;;;;;42.35;20.92;;;;;;;;;;5000042;28;20057;-68
2022/12/14 09:38:11;;;;;;;49.83;22.33;;;;;;;;;;4990561;28;20037;-69
2022/12/14 09:40:39;;;;;;;41.95;21.77;;;;;;;;;;4991116;28;20045;-68
2022/12/14 09:43:06;;;;;;;36.65;18.02;;;;;;;;;;4975843;28;20040;-69
2022/12/14 09:45:33;;;;;;;38.85;19.02;;;;;;;;;;4996001;28;20485;-68
2022/12/14 09:48:20;;;;;;;40.00;18.33;;;;;;;;;;4998386;28;20475;-69
2022/12/14 09:50:47;;;;;;;33.38;17.55;;;;;;;;;;4999638;28;20092;-69
2022/12/14 09:53:14;;;;;;;30.95;16.58;;;;;;;;;;4997473;28;20026;-68
2022/12/14 09:55:45;;;;;;;37.17;17.88;;;;;;;;;;4985846;28;20029;-68
2022/12/14 09:58:18;;;;;;;32.08;16.90;;;;;;;;;;4999534;28;20084;-68
2022/12/14 10:00:48;;;;;;;39.85;18.02;;;;;;;;;;4995909;28;20026;-68
2022/12/14 10:03:14;;;;;;;37.60;18.40;;;;;;;;;;4997142;28;20034;-68
2022/12/14 10:05:50;;;;;;;37.55;19.95;;;;;;;;;;4997375;28;20036;-68
2022/12/14 10:08:27;;;;;;;33.80;17.10;;;;;;;;;;4998033;28;20367;-68
2022/12/14 10:11:12;;;;;;;33.15;18.35;;;;;;;;;;4996543;28;20045;-69
2022/12/14 10:13:38;;;;;;;32.72;18.08;;;;;;;;;;5004383;28;20379;-68
2022/12/14 10:16:09;;;;;;;35.75;17.48;;;;;;;;;;4978773;28;20651;-70
2022/12/14 10:18:35;;;;;;;35.60;17.57;;;;;;;;;;4998407;28;20039;-67
2022/12/14 10:21:05;;;;;;;39.13;18.45;;;;;;;;;;4996535;28;20304;-68
2022/12/14 10:23:31;;;;;;;33.05;17.92;;;;;;;;;;5000294;28;20040;-68
2022/12/14 10:26:02;;;;;;;31.73;16.92;;;;;;;;;;4993626;28;20088;-68
2022/12/14 10:28:47;;;;;;;30.73;16.77;;;;;;;;;;4997529;28;20038;-69
2022/12/14 10:31:14;;;;;;;32.00;15.60;;;;;;;;;;4999055;28;21205;-69
2022/12/14 10:33:43;;;;;;;26.20;14.55;;;;;;;;;;5001649;28;20030;-68
2022/12/14 10:36:16;;;;;;;30.10;16.48;;;;;;;;;;4995515;28;20054;-69
2022/12/14 10:38:46;;;;;;;26.52;14.73;;;;;;;;;;4998228;28;20038;-70
2022/12/14 10:41:18;;;;;;;27.73;15.10;;;;;;;;;;4993302;28;20085;-69
2022/12/14 10:43:44;;;;;;;25.17;13.38;;;;;;;;;;4994408;28;20042;-70
2022/12/14 10:46:10;;;;;;;23.00;13.43;;;;;;;;;;4999857;28;20101;-69
2022/12/14 10:48:55;;;;;;;27.05;14.07;;;;;;;;;;4994436;28;20046;-69
2022/12/14 10:51:33;;;;;;;23.73;13.98;;;;;;;;;;4997667;28;20061;-69
2022/12/14 10:54:07;;;;;;;22.65;14.52;;;;;;;;;;4981873;28;20077;-69
2022/12/14 10:56:35;;;;;;;24.10;13.80;;;;;;;;;;4998137;28;20244;-71
2022/12/14 10:59:10;;;;;;;18.20;12.43;;;;;;;;;;4997186;28;20037;-69
2022/12/14 11:01:36;;;;;;;21.95;13.32;;;;;;;;;;4999319;28;20038;-71
2022/12/14 11:04:02;;;;;;;23.23;14.02;;;;;;;;;;4983214;28;20028;-70
2022/12/14 11:06:28;;;;;;;23.75;13.35;;;;;;;;;;5001488;28;20113;-69
2022/12/14 11:08:56;;;;;;;24.42;14.90;;;;;;;;;;5017186;28;20034;-69
2022/12/14 11:11:24;;;;;;;23.35;14.75;;;;;;;;;;4998717;28;20048;-70
2022/12/14 11:14:10;;;;;;;24.20;12.77;;;;;;;;;;4977349;28;20026;-69
2022/12/14 11:16:38;;;;;;;23.15;13.98;;;;;;;;;;4999595;28;20083;-69
2022/12/14 11:19:08;;;;;;;29.80;15.77;;;;;;;;;;4995768;28;20038;-70
2022/12/14 11:21:36;;;;;;;23.83;14.32;;;;;;;;;;4994666;28;20116;-69
2022/12/14 11:24:02;;;;;;;19.95;12.68;;;;;;;;;;5001277;28;20029;-68
2022/12/14 11:26:32;;;;;;;27.63;16.75;;;;;;;;;;5000794;28;21447;-70
2022/12/14 11:28:59;;;;;;;24.23;14.27;;;;;;;;;;4994379;28;20076;-69
2022/12/14 11:31:25;;;;;;;21.75;12.40;;;;;;;;;;5004418;28;20035;-69
2022/12/14 11:33:55;;;;;;;19.90;12.48;;;;;;;;;;5010240;28;20026;-69
2022/12/14 11:36:24;;;;;;;21.70;13.00;;;;;;;;;;4995752;28;20061;-69
2022/12/14 11:38:54;;;;;;;21.30;11.95;;;;;;;;;;4992996;28;20046;-69
2022/12/14 11:41:21;;;;;;;19.35;12.07;;;;;;;;;;4998795;28;20040;-68
2022/12/14 11:44:00;;;;;;;20.92;11.90;;;;;;;;;;4997206;28;20067;-68
2022/12/14 11:46:40;;;;;;;17.67;11.25;;;;;;;;;;5004277;28;20408;-70
2022/12/14 11:49:20;;;;;;;19.42;12.15;;;;;;;;;;4995732;28;20525;-68
2022/12/14 11:51:55;;;;;;;19.33;11.38;;;;;;;;;;4995217;28;20426;-70
2022/12/14 11:54:21;;;;;;;28.00;12.55;;;;;;;;;;4992961;28;20366;-69
2022/12/14 11:56:51;;;;;;;21.98;12.82;;;;;;;;;;5000768;28;20773;-70
2022/12/14 11:59:18;;;;;;;21.75;11.65;;;;;;;;;;4997509;28;20029;-69
2022/12/14 12:01:44;;;;;;;22.42;13.20;;;;;;;;;;4997818;28;20355;-70
2022/12/14 12:04:13;;;;;;;26.15;13.10;;;;;;;;;;4998634;28;20443;-69
2022/12/14 12:06:40;;;;;;;25.02;13.57;;;;;;;;;;5000692;28;20034;-68
2022/12/14 12:09:14;;;;;;;24.17;12.55;;;;;;;;;;4996641;28;20451;-68
2022/12/14 12:11:44;;;;;;;28.20;14.68;;;;;;;;;;4996151;28;20031;-68
2022/12/14 12:14:36;;;;;;;21.30;11.30;;;;;;;;;;5000782;28;20145;-69
2022/12/14 12:17:16;;;;;;;30.13;14.27;;;;;;;;;;5009733;28;20125;-70
2022/12/14 12:19:42;;;;;;;22.95;12.30;;;;;;;;;;4999756;28;20376;-67
2022/12/14 12:22:08;;;;;;;21.48;12.32;;;;;;;;;;5011997;28;20511;-71
2022/12/14 12:24:37;;;;;;;26.15;11.75;;;;;;;;;;5014501;28;20033;-68
2022/12/14 12:27:11;;;;;;;22.00;11.15;;;;;;;;;;5014401;28;20037;-68
2022/12/14 12:29:39;;;;;;;19.48;11.38;;;;;;;;;;5014007;28;20044;-69
2022/12/14 12:32:05;;;;;;;18.60;11.15;;;;;;;;;;5022319;28;20029;-69
2022/12/14 12:34:31;;;;;;;23.58;12.05;;;;;;;;;;5004256;28;20076;-66
2022/12/14 12:37:00;;;;;;;18.73;10.98;;;;;;;;;;5020277;28;20146;-67
2022/12/14 12:39:26;;;;;;;20.83;11.32;;;;;;;;;;5021462;28;20641;-67
2022/12/14 12:42:05;;;;;;;20.45;11.40;;;;;;;;;;5013540;28;20037;-70
2022/12/14 12:44:31;;;;;;;24.70;13.52;;;;;;;;;;5011644;28;20470;-69
2022/12/14 12:47:16;;;;;;;19.73;11.48;;;;;;;;;;5014461;28;20038;-67
2022/12/14 12:49:42;;;;;;;21.65;12.40;;;;;;;;;;5012453;28;20111;-67
2022/12/14 12:52:30;;;;;;;19.95;11.57;;;;;;;;;;5008849;28;20045;-67
2022/12/14 12:54:56;;;;;;;21.67;10.85;;;;;;;;;;5009984;28;20065;-68
2022/12/14 12:57:23;;;;;;;25.00;12.82;;;;;;;;;;5013875;28;20147;-68
2022/12/14 12:59:51;;;;;;;26.83;12.40;;;;;;;;;;5011126;28;20390;-68
2022/12/14 13:02:31;;;;;;;19.42;11.35;;;;;;;;;;5019332;28;20056;-68
2022/12/14 13:04:58;;;;;;;20.48;11.00;;;;;;;;;;5013358;28;20033;-69
2022/12/14 13:07:36;;;;;;;26.65;12.02;;;;;;;;;;5006515;28;20431;-68
2022/12/14 13:10:02;;;;;;;23.73;12.70;;;;;;;;;;4990872;28;20069;-69
2022/12/14 13:12:31;;;;;;;22.38;11.80;;;;;;;;;;5018503;28;20022;-67
2022/12/14 13:14:59;;;;;;;25.10;13.15;;;;;;;;;;5009924;28;20026;-68
2022/12/14 13:17:38;;;;;;;25.48;12.85;;;;;;;;;;5015565;28;20031;-68
2022/12/14 13:20:06;;;;;;;25.35;12.88;;;;;;;;;;5030025;28;20124;-68
2022/12/14 13:22:34;;;;;;;23.08;11.43;;;;;;;;;;5010296;28;20034;-68
2022/12/14 13:25:26;;;;;;;21.58;12.40;;;;;;;;;;5010032;28;20084;-67
2022/12/14 13:28:11;;;;;;;21.08;11.40;;;;;;;;;;4988028;28;20077;-68
2022/12/14 13:30:40;;;;;;;22.15;12.23;;;;;;;;;;5019009;28;20060;-69
2022/12/14 13:33:24;;;;;;;21.67;13.00;;;;;;;;;;5004893;28;20033;-67
2022/12/14 13:35:56;;;;;;;25.88;12.90;;;;;;;;;;5015524;28;20121;-67
2022/12/14 13:38:31;;;;;;;21.20;12.63;;;;;;;;;;5009876;28;20414;-67
2022/12/14 13:41:24;;;;;;;23.50;13.27;;;;;;;;;;4990955;28;20060;-67
2022/12/14 13:43:53;;;;;;;21.33;11.65;;;;;;;;;;5010353;28;20045;-69
2022/12/14 13:46:24;;;;;;;19.92;12.32;;;;;;;;;;5014561;28;20022;-66
2022/12/14 13:48:54;;;;;;;19.60;12.57;;;;;;;;;;5010694;28;20057;-68
2022/12/14 13:51:41;;;;;;;22.95;11.85;;;;;;;;;;5013824;28;20032;-67
2022/12/14 13:54:17;;;;;;;22.02;12.95;;;;;;;;;;5011025;28;20034;-68
2022/12/14 13:56:43;;;;;;;26.10;13.50;;;;;;;;;;4995272;28;20109;-67
2022/12/14 13:59:21;;;;;;;22.85;12.23;;;;;;;;;;5028555;28;20088;-68
2022/12/14 14:01:47;;;;;;;22.50;13.07;;;;;;;;;;5014252;28;20041;-68
2022/12/14 14:04:17;;;;;;;22.40;13.00;;;;;;;;;;5026052;28;20367;-68
2022/12/14 14:06:47;;;;;;;24.70;14.30;;;;;;;;;;5010179;28;20032;-68
2022/12/14 14:09:28;;;;;;;24.33;14.48;;;;;;;;;;5022438;28;20117;-68
2022/12/14 14:11:58;;;;;;;23.85;12.55;;;;;;;;;;5013263;28;20022;-67
2022/12/14 14:14:42;;;;;;;22.40;13.02;;;;;;;;;;5016514;28;20061;-69
2022/12/14 14:17:13;;;;;;;22.70;12.35;;;;;;;;;;5016035;28;20398;-68
2022/12/14 14:19:40;;;;;;;23.92;12.30;;;;;;;;;;5028859;28;20092;-68
2022/12/14 14:22:09;;;;;;;21.55;12.07;;;;;;;;;;5015362;28;20133;-68
2022/12/14 14:24:55;;;;;;;19.88;10.77;;;;;;;;;;5013632;28;20030;-68
2022/12/14 14:27:40;;;;;;;22.48;12.52;;;;;;;;;;4990691;28;20034;-67
2022/12/14 14:30:23;;;;;;;23.83;11.82;;;;;;;;;;5007609;28;20167;-66
2022/12/14 14:32:52;;;;;;;18.85;11.25;;;;;;;;;;5021547;28;20359;-66
2022/12/14 14:35:34;;;;;;;20.88;11.98;;;;;;;;;;5021938;28;20036;-67
2022/12/14 14:38:02;;;;;;;19.75;11.95;;;;;;;;;;5013789;28;20121;-67
2022/12/14 14:40:30;;;;;;;24.55;13.07;;;;;;;;;;4983979;28;20088;-67
2022/12/14 14:43:07;;;;;;;24.60;13.77;;;;;;;;;;5013274;28;20041;-67
2022/12/14 14:45:37;;;;;;;37.08;19.75;;;;;;;;;;4997349;28;20113;-68